createdAt,value
2019-05-19T00:00:00.376Z,6.00
2019-05-19T00:02:29.096Z,6.83
2019-05-19T00:04:57.784Z,7.13
2019-05-19T00:07:26.443Z,6.93
2019-05-19T00:09:55.257Z,6.97
2019-05-19T00:12:24.049Z,7.50
2019-05-19T00:14:52.768Z,6.10
2019-05-19T00:17:21.470Z,7.13
2019-05-19T00:19:50.183Z,6.43
2019-05-19T00:22:18.874Z,7.47
2019-05-19T00:24:47.709Z,7.47
2019-05-19T00:27:16.458Z,7.77
2019-05-19T00:29:45.140Z,8.43
2019-05-19T00:32:13.831Z,7.67
2019-05-19T00:34:42.506Z,7.33
2019-05-19T00:37:11.368Z,7.03
2019-05-19T00:39:40.275Z,7.50
2019-05-19T00:42:08.943Z,8.00
2019-05-19T00:44:37.646Z,7.23
2019-05-19T00:47:06.304Z,7.70
2019-05-19T00:49:41.331Z,8.30
2019-05-19T00:52:05.972Z,8.77
2019-05-19T00:54:34.672Z,7.60
2019-05-19T00:57:04.646Z,8.00
2019-05-19T00:59:35.316Z,8.20
2019-05-19T01:02:04.032Z,7.70
2019-05-19T01:04:32.731Z,8.00
2019-05-19T01:07:01.600Z,7.83
2019-05-19T01:09:30.280Z,9.00
2019-05-19T01:11:59.164Z,8.00
2019-05-19T01:14:27.843Z,7.33
2019-05-19T01:16:56.515Z,7.60
2019-05-19T01:19:25.279Z,8.23
2019-05-19T01:21:54.789Z,7.13
2019-05-19T01:24:23.656Z,8.17
2019-05-19T01:26:52.464Z,8.13
2019-05-19T01:29:21.133Z,7.83
2019-05-19T01:31:50.194Z,7.90
2019-05-19T01:34:18.907Z,8.43
2019-05-19T01:36:47.611Z,8.20
2019-05-19T01:39:16.299Z,8.23
2019-05-19T01:41:44.991Z,8.90
2019-05-19T01:44:13.764Z,8.17
2019-05-19T01:46:42.464Z,9.10
2019-05-19T01:49:11.151Z,8.50
2019-05-19T01:51:39.886Z,9.90
2019-05-19T01:54:08.541Z,8.30
2019-05-19T01:56:37.245Z,9.07
2019-05-19T01:59:05.997Z,7.60
2019-05-19T02:01:34.804Z,8.90
2019-05-19T02:04:03.494Z,10.27
2019-05-19T02:06:32.215Z,8.67
2019-05-19T02:09:00.871Z,9.90
2019-05-19T02:11:29.593Z,9.87
2019-05-19T02:13:58.326Z,8.70
2019-05-19T02:16:27.027Z,9.83
2019-05-19T02:18:56.154Z,9.70
2019-05-19T02:21:24.846Z,9.70
2019-05-19T02:23:53.558Z,9.80
2019-05-19T02:26:22.242Z,9.90
2019-05-19T02:28:50.933Z,9.10
2019-05-19T02:31:19.645Z,10.10
2019-05-19T02:33:48.383Z,9.07
2019-05-19T02:36:18.360Z,10.03
2019-05-19T02:38:47.065Z,9.27
2019-05-19T02:41:17.633Z,9.07
2019-05-19T02:43:47.705Z,9.70
2019-05-19T02:46:17.018Z,9.93
2019-05-19T02:48:45.993Z,9.50
2019-05-19T02:51:16.554Z,10.30
2019-05-19T02:53:45.756Z,11.10
2019-05-19T02:56:15.027Z,10.80
2019-05-19T02:58:44.542Z,11.43
2019-05-19T03:01:13.788Z,9.37
2019-05-19T03:03:42.498Z,10.70
2019-05-19T03:06:11.167Z,11.33
2019-05-19T03:08:39.856Z,11.67
2019-05-19T03:11:08.641Z,10.40
2019-05-19T03:13:37.323Z,11.20
2019-05-19T03:16:06.131Z,11.30
2019-05-19T03:18:34.811Z,11.87
2019-05-19T03:21:11.044Z,10.60
2019-05-19T03:23:34.063Z,10.00
2019-05-19T03:26:02.828Z,13.00
2019-05-19T03:28:31.505Z,13.40
2019-05-19T03:31:19.677Z,12.47
2019-05-19T03:33:58.351Z,11.83
2019-05-19T03:36:27.120Z,12.90
2019-05-19T03:38:55.812Z,12.37
2019-05-19T03:41:24.583Z,12.53
2019-05-19T03:43:53.244Z,15.70
2019-05-19T03:46:21.963Z,15.23
2019-05-19T03:48:50.800Z,15.90
2019-05-19T03:51:30.113Z,14.07
2019-05-19T03:53:50.292Z,12.60
2019-05-19T03:56:18.998Z,13.00
2019-05-19T03:58:47.666Z,13.63
2019-05-19T04:01:16.378Z,13.20
2019-05-19T04:03:45.098Z,13.50
2019-05-19T04:06:13.786Z,13.60
2019-05-19T04:08:42.492Z,13.00
2019-05-19T04:11:11.164Z,13.67
2019-05-19T04:13:39.978Z,14.53
2019-05-19T04:16:08.669Z,13.67
2019-05-19T04:18:37.618Z,14.80
2019-05-19T04:21:06.312Z,15.70
2019-05-19T04:23:35.012Z,18.40
2019-05-19T04:26:03.688Z,15.93
2019-05-19T04:28:32.387Z,15.10
2019-05-19T04:31:01.066Z,13.60
2019-05-19T04:33:29.838Z,14.20
2019-05-19T04:35:58.565Z,15.60
2019-05-19T04:38:27.258Z,15.50
2019-05-19T04:40:56.133Z,16.00
2019-05-19T04:43:24.926Z,16.00
2019-05-19T04:45:53.596Z,14.43
2019-05-19T04:48:22.268Z,15.37
2019-05-19T04:50:50.979Z,16.37
2019-05-19T04:53:19.689Z,15.97
2019-05-19T04:55:48.595Z,15.17
2019-05-19T04:58:17.355Z,16.20
2019-05-19T05:00:46.068Z,15.63
2019-05-19T05:03:14.818Z,15.30
2019-05-19T05:05:43.575Z,16.03
2019-05-19T05:08:27.786Z,14.43
2019-05-19T05:10:42.669Z,15.23
2019-05-19T05:13:11.346Z,16.00
2019-05-19T05:15:40.023Z,16.23
2019-05-19T05:18:08.716Z,15.30
2019-05-19T05:20:37.391Z,16.43
2019-05-19T05:23:06.101Z,17.00
2019-05-19T05:25:34.811Z,17.43
2019-05-19T05:28:03.517Z,15.23
2019-05-19T05:30:32.263Z,15.60
2019-05-19T05:33:00.967Z,15.17
2019-05-19T05:35:29.813Z,16.27
2019-05-19T05:37:58.981Z,14.97
2019-05-19T05:40:28.252Z,14.97
2019-05-19T05:42:56.958Z,15.10
2019-05-19T05:45:25.645Z,15.17
2019-05-19T05:47:54.402Z,15.27
2019-05-19T05:50:23.117Z,14.93
2019-05-19T05:52:51.888Z,17.47
2019-05-19T05:55:20.593Z,17.40
2019-05-19T05:57:49.276Z,19.83
2019-05-19T06:00:19.084Z,19.37
2019-05-19T06:02:47.757Z,19.90
2019-05-19T06:05:16.531Z,18.33
2019-05-19T06:07:45.234Z,20.90
2019-05-19T06:10:14.439Z,21.40
2019-05-19T06:12:43.098Z,21.97
2019-05-19T06:15:12.069Z,18.83
2019-05-19T06:17:40.770Z,21.20
2019-05-19T06:20:09.629Z,18.43
2019-05-19T06:22:54.565Z,20.00
2019-05-19T06:25:08.738Z,20.50
2019-05-19T06:27:37.448Z,20.47
2019-05-19T06:30:08.811Z,21.73
2019-05-19T06:32:44.638Z,20.87
2019-05-19T06:35:13.791Z,19.50
2019-05-19T06:37:43.589Z,22.07
2019-05-19T06:40:12.653Z,20.37
2019-05-19T06:42:41.350Z,21.43
2019-05-19T06:45:10.823Z,20.50
2019-05-19T06:47:39.547Z,21.53
2019-05-19T06:50:08.832Z,20.13
2019-05-19T06:52:37.528Z,19.20
2019-05-19T06:55:07.445Z,19.73
2019-05-19T06:57:36.113Z,21.57
2019-05-19T07:00:06.596Z,24.00
2019-05-19T07:02:35.313Z,23.80
2019-05-19T07:05:07.249Z,24.57
2019-05-19T07:07:35.951Z,23.60
2019-05-19T07:10:06.694Z,25.77
2019-05-19T07:12:35.603Z,23.80
2019-05-19T07:15:05.270Z,23.60
2019-05-19T07:17:34.131Z,24.97
2019-05-19T07:20:02.882Z,23.17
2019-05-19T07:22:31.975Z,21.37
2019-05-19T07:25:00.733Z,20.20
2019-05-19T07:27:29.412Z,22.63
2019-05-19T07:29:58.098Z,18.00
2019-05-19T07:32:26.901Z,20.47
2019-05-19T07:34:55.927Z,18.90
2019-05-19T07:37:24.595Z,18.97
2019-05-19T07:39:53.378Z,16.17
2019-05-19T07:42:22.125Z,17.13
2019-05-19T07:44:50.808Z,16.90
2019-05-19T07:47:19.486Z,14.90
2019-05-19T07:49:48.318Z,15.10
2019-05-19T07:52:17.121Z,14.70
2019-05-19T07:54:45.792Z,16.27
2019-05-19T07:57:14.478Z,13.87
2019-05-19T07:59:43.207Z,13.83
2019-05-19T08:02:11.935Z,13.50
2019-05-19T08:04:40.687Z,14.23
2019-05-19T08:07:10.718Z,13.90
2019-05-19T08:09:39.439Z,13.80
2019-05-19T08:12:08.132Z,13.80
2019-05-19T08:14:36.807Z,14.50
2019-05-19T08:17:05.876Z,15.00
2019-05-19T08:19:34.594Z,14.80
2019-05-19T08:22:03.307Z,15.40
2019-05-19T08:24:32.026Z,14.03
2019-05-19T08:27:00.717Z,13.40
2019-05-19T08:29:29.403Z,13.87
2019-05-19T08:31:58.111Z,13.70
2019-05-19T08:34:26.815Z,13.10
2019-05-19T08:36:55.565Z,12.47
2019-05-19T08:39:24.269Z,12.30
2019-05-19T08:41:52.950Z,10.33
2019-05-19T08:44:21.787Z,10.90
2019-05-19T08:46:50.505Z,11.77
2019-05-19T08:49:19.549Z,11.50
2019-05-19T08:51:48.228Z,10.40
2019-05-19T08:54:18.953Z,10.37
2019-05-19T08:56:47.320Z,10.10
2019-05-19T08:59:35.312Z,8.90
2019-05-19T09:02:04.225Z,9.53
2019-05-19T09:04:32.871Z,8.17
2019-05-19T09:07:01.626Z,7.60
2019-05-19T09:09:30.294Z,7.27
2019-05-19T09:11:58.995Z,7.20
2019-05-19T09:14:27.676Z,6.63
2019-05-19T09:16:56.547Z,6.50
2019-05-19T09:19:25.563Z,7.27
2019-05-19T09:21:54.467Z,7.10
2019-05-19T09:24:30.462Z,5.93
2019-05-19T09:26:53.533Z,6.90
2019-05-19T09:29:22.359Z,6.57
2019-05-19T09:31:51.172Z,7.00
2019-05-19T09:34:19.931Z,7.30
2019-05-19T09:36:48.599Z,6.50
2019-05-19T09:39:17.330Z,6.80
2019-05-19T09:41:46.015Z,6.40
2019-05-19T09:44:14.728Z,6.83
2019-05-19T09:46:43.392Z,7.43
2019-05-19T09:49:16.151Z,6.70
2019-05-19T09:51:44.838Z,6.10
2019-05-19T09:54:13.575Z,7.63
2019-05-19T09:56:42.339Z,7.60
2019-05-19T09:59:11.018Z,7.93
2019-05-19T10:01:39.817Z,5.60
2019-05-19T10:04:08.518Z,6.73
2019-05-19T10:06:37.200Z,7.90
2019-05-19T10:09:07.614Z,6.73
2019-05-19T10:12:01.257Z,6.53
2019-05-19T10:14:29.960Z,6.33
2019-05-19T10:16:58.636Z,7.53
2019-05-19T10:19:27.736Z,7.20
2019-05-19T10:21:56.431Z,9.07
2019-05-19T10:24:25.135Z,9.90
2019-05-19T10:26:53.833Z,9.17
2019-05-19T10:29:22.547Z,7.90
2019-05-19T10:31:54.252Z,6.60
2019-05-19T10:34:21.791Z,5.50
2019-05-19T10:36:50.504Z,6.07
2019-05-19T10:39:19.176Z,8.90
2019-05-19T10:41:47.837Z,8.80
2019-05-19T10:44:16.559Z,9.00
2019-05-19T10:46:45.331Z,9.63
2019-05-19T10:49:14.027Z,9.43
2019-05-19T10:51:42.753Z,10.00
2019-05-19T10:54:11.483Z,9.07
2019-05-19T10:56:40.202Z,9.20
2019-05-19T10:59:08.906Z,9.50
2019-05-19T11:01:37.641Z,7.93
2019-05-19T11:04:06.333Z,7.33
2019-05-19T11:06:35.039Z,8.30
2019-05-19T11:09:05.248Z,8.13
2019-05-19T11:11:34.027Z,9.00
2019-05-19T11:14:02.719Z,7.47
2019-05-19T11:16:31.386Z,7.40
2019-05-19T11:19:00.099Z,9.17
2019-05-19T11:21:28.768Z,8.50
2019-05-19T11:23:57.499Z,9.73
2019-05-19T11:26:26.188Z,8.70
2019-05-19T11:28:54.847Z,8.20
2019-05-19T11:31:24.699Z,10.17
2019-05-19T11:33:53.425Z,10.57
2019-05-19T11:36:22.131Z,10.70
2019-05-19T11:38:50.853Z,10.90
2019-05-19T11:41:19.519Z,11.17
2019-05-19T11:43:48.231Z,10.80
2019-05-19T11:46:16.948Z,10.40
2019-05-19T11:48:45.657Z,10.90
2019-05-19T11:51:14.337Z,9.93
2019-05-19T11:53:43.046Z,11.70
2019-05-19T11:56:11.820Z,12.90
2019-05-19T11:58:40.572Z,11.80
2019-05-19T12:01:09.323Z,10.30
2019-05-19T12:03:38.096Z,10.03
2019-05-19T12:06:06.818Z,9.40
2019-05-19T12:08:35.487Z,9.37
2019-05-19T12:11:04.305Z,8.60
2019-05-19T12:13:34.955Z,8.20
2019-05-19T12:16:03.563Z,9.47
2019-05-19T12:18:32.249Z,9.87
2019-05-19T12:21:00.961Z,8.10
2019-05-19T12:23:29.675Z,10.60
2019-05-19T12:25:58.431Z,11.70
2019-05-19T12:28:27.158Z,9.07
2019-05-19T12:30:55.859Z,8.20
2019-05-19T12:33:24.855Z,8.57
2019-05-19T12:35:53.531Z,9.03
2019-05-19T12:38:22.228Z,9.10
2019-05-19T12:40:50.930Z,7.97
2019-05-19T12:43:19.728Z,7.77
2019-05-19T12:45:48.470Z,6.57
2019-05-19T12:48:17.263Z,6.70
2019-05-19T12:50:45.952Z,6.53
2019-05-19T12:53:14.628Z,7.70
2019-05-19T12:55:43.336Z,7.27
2019-05-19T12:58:12.079Z,6.27
2019-05-19T13:00:40.791Z,6.70
2019-05-19T13:03:09.454Z,5.90
2019-05-19T13:05:38.279Z,7.60
2019-05-19T13:08:06.978Z,8.00
2019-05-19T13:10:35.751Z,8.70
2019-05-19T13:13:04.446Z,9.37
2019-05-19T13:15:33.161Z,7.10
2019-05-19T13:18:01.847Z,6.07
2019-05-19T13:20:30.528Z,5.73
2019-05-19T13:22:59.272Z,4.13
2019-05-19T13:25:28.191Z,4.13
2019-05-19T13:27:56.883Z,3.10
2019-05-19T13:30:25.603Z,3.80
2019-05-19T13:32:54.312Z,2.80
2019-05-19T13:35:22.988Z,2.87
2019-05-19T13:37:51.754Z,2.93
2019-05-19T13:40:20.428Z,2.90
2019-05-19T13:42:49.242Z,2.47
2019-05-19T13:45:18.138Z,2.77
2019-05-19T13:47:46.822Z,2.53
2019-05-19T13:50:15.523Z,2.40
2019-05-19T13:52:44.225Z,7.47
2019-05-19T13:55:12.883Z,4.47
2019-05-19T13:57:41.591Z,3.10
2019-05-19T14:00:12.275Z,3.60
2019-05-19T14:02:40.980Z,3.10
2019-05-19T14:05:09.830Z,3.73
2019-05-19T14:07:38.525Z,3.30
2019-05-19T14:10:08.385Z,3.13
2019-05-19T14:12:37.126Z,3.70
2019-05-19T14:15:08.004Z,3.70
2019-05-19T14:17:36.692Z,3.47
2019-05-19T14:20:07.507Z,4.13
2019-05-19T14:22:36.291Z,3.37
2019-05-19T14:25:06.027Z,3.67
2019-05-19T14:27:34.747Z,3.30
2019-05-19T14:30:04.012Z,2.60
2019-05-19T14:32:32.719Z,3.70
2019-05-19T14:35:01.415Z,3.60
2019-05-19T14:37:30.187Z,3.33
2019-05-19T14:39:58.977Z,3.20
2019-05-19T14:42:31.694Z,3.30
2019-05-19T14:45:00.425Z,3.70
2019-05-19T14:47:29.111Z,3.93
2019-05-19T14:49:57.893Z,3.30
2019-05-19T14:52:26.554Z,3.70
2019-05-19T14:54:55.320Z,3.33
2019-05-19T14:57:24.043Z,3.30
2019-05-19T14:59:52.762Z,3.73
2019-05-19T15:02:21.524Z,3.93
2019-05-19T15:04:50.203Z,4.03
2019-05-19T15:07:18.908Z,3.97
2019-05-19T15:09:47.638Z,4.17
2019-05-19T15:12:16.348Z,4.40
2019-05-19T15:14:45.064Z,3.87
2019-05-19T15:17:13.723Z,3.83
2019-05-19T15:19:42.488Z,4.10
2019-05-19T15:22:11.185Z,3.60
2019-05-19T15:24:39.984Z,4.37
2019-05-19T15:27:08.867Z,3.50
2019-05-19T15:29:37.584Z,3.07
2019-05-19T15:32:06.293Z,4.07
2019-05-19T15:34:34.966Z,4.03
2019-05-19T15:37:03.667Z,4.30
2019-05-19T15:39:32.352Z,4.03
2019-05-19T15:42:01.057Z,4.30
2019-05-19T15:44:29.751Z,5.03
2019-05-19T15:46:58.752Z,4.30
2019-05-19T15:49:27.534Z,3.70
2019-05-19T15:52:02.835Z,3.40
2019-05-19T15:54:26.706Z,3.60
2019-05-19T15:56:55.383Z,3.70
2019-05-19T15:59:24.106Z,4.00
2019-05-19T16:01:55.975Z,4.20
2019-05-19T16:04:24.733Z,3.50
2019-05-19T16:06:53.782Z,4.00
2019-05-19T16:09:22.474Z,3.80
2019-05-19T16:11:51.164Z,4.27
2019-05-19T16:14:19.913Z,3.83
2019-05-19T16:16:48.627Z,3.50
2019-05-19T16:19:17.528Z,3.23
2019-05-19T16:21:46.251Z,2.87
2019-05-19T16:24:14.992Z,3.67
2019-05-19T16:26:43.674Z,4.07
2019-05-19T16:29:12.537Z,4.07
2019-05-19T16:31:41.217Z,4.07
2019-05-19T16:34:09.977Z,4.13
2019-05-19T16:36:38.667Z,3.63
2019-05-19T16:39:08.134Z,3.50
2019-05-19T16:41:38.052Z,3.20
2019-05-19T16:44:08.320Z,3.83
2019-05-19T16:46:37.003Z,3.50
2019-05-19T16:49:06.043Z,3.63
2019-05-19T16:51:35.018Z,3.70
2019-05-19T16:54:11.130Z,3.63
2019-05-19T16:56:39.949Z,3.53
2019-05-19T16:59:08.938Z,3.57
2019-05-19T17:01:37.747Z,3.40
2019-05-19T17:04:06.510Z,3.37
2019-05-19T17:06:35.178Z,3.47
2019-05-19T17:09:04.637Z,3.80
2019-05-19T17:11:33.546Z,3.20
2019-05-19T17:14:02.386Z,3.70
2019-05-19T17:16:32.352Z,3.70
2019-05-19T17:19:01.192Z,3.77
2019-05-19T17:21:29.893Z,3.10
2019-05-19T17:23:58.683Z,3.60
2019-05-19T17:26:27.693Z,3.33
2019-05-19T17:29:00.498Z,4.00
2019-05-19T17:31:27.287Z,2.70
2019-05-19T17:33:56.237Z,3.33
2019-05-19T17:36:27.388Z,3.10
2019-05-19T17:38:55.302Z,3.83
2019-05-19T17:41:24.010Z,3.40
2019-05-19T17:43:52.693Z,3.67
2019-05-19T17:46:21.407Z,3.60
2019-05-19T17:48:50.245Z,3.80
2019-05-19T17:51:18.989Z,3.80
2019-05-19T17:53:47.678Z,3.73
2019-05-19T17:56:16.798Z,4.00
2019-05-19T17:58:46.875Z,3.77
2019-05-19T18:01:15.565Z,4.40
2019-05-19T18:03:44.973Z,3.80
2019-05-19T18:06:13.750Z,4.60
2019-05-19T18:08:42.608Z,4.80
2019-05-19T18:11:11.292Z,4.80
2019-05-19T18:13:40.026Z,4.00
2019-05-19T18:16:08.726Z,3.70
2019-05-19T18:18:58.279Z,3.87
2019-05-19T18:21:26.974Z,3.90
2019-05-19T18:23:55.653Z,4.13
2019-05-19T18:26:24.361Z,4.33
2019-05-19T18:28:53.043Z,3.60
2019-05-19T18:31:21.740Z,3.80
2019-05-19T18:33:50.591Z,4.00
2019-05-19T18:36:19.302Z,3.17
2019-05-19T18:38:48.100Z,3.80
2019-05-19T18:41:16.764Z,3.53
2019-05-19T18:43:45.482Z,3.80
2019-05-19T18:46:14.411Z,3.93
2019-05-19T18:48:43.122Z,3.30
2019-05-19T18:51:11.815Z,3.90
2019-05-19T18:53:40.535Z,4.27
2019-05-19T18:56:09.242Z,3.83
2019-05-19T18:58:37.927Z,3.97
2019-05-19T19:01:06.675Z,4.07
2019-05-19T19:03:35.383Z,3.63
2019-05-19T19:06:04.063Z,4.40
2019-05-19T19:08:32.814Z,4.10
2019-05-19T19:11:01.570Z,3.60
2019-05-19T19:13:31.326Z,4.13
2019-05-19T19:16:00.038Z,4.20
2019-05-19T19:18:28.696Z,4.60
2019-05-19T19:20:57.505Z,3.93
2019-05-19T19:23:26.462Z,4.30
2019-05-19T19:25:55.128Z,4.50
2019-05-19T19:28:23.853Z,4.33
2019-05-19T19:30:52.537Z,3.60
2019-05-19T19:33:21.364Z,5.10
2019-05-19T19:35:50.034Z,4.33
2019-05-19T19:38:19.759Z,4.23
2019-05-19T19:40:48.501Z,4.80
2019-05-19T19:43:17.205Z,4.23
2019-05-19T19:45:45.959Z,4.40
2019-05-19T19:48:14.685Z,4.70
2019-05-19T19:50:43.403Z,3.70
2019-05-19T19:53:12.068Z,4.50
2019-05-19T19:55:40.759Z,4.50
2019-05-19T19:58:09.434Z,3.60
2019-05-19T20:00:39.976Z,3.57
2019-05-19T20:03:08.812Z,3.80
2019-05-19T20:05:37.743Z,3.40
2019-05-19T20:08:07.407Z,3.90
2019-05-19T20:10:37.128Z,3.43
2019-05-19T20:13:06.203Z,3.20
2019-05-19T20:15:35.713Z,4.17
2019-05-19T20:18:04.425Z,3.97
2019-05-19T20:20:33.100Z,3.77
2019-05-19T20:23:01.840Z,3.60
2019-05-19T20:25:30.626Z,4.17
2019-05-19T20:27:59.331Z,4.03
2019-05-19T20:30:35.574Z,3.80
2019-05-19T20:32:58.699Z,3.60
2019-05-19T20:35:27.646Z,3.70
2019-05-19T20:37:56.376Z,3.70
2019-05-19T20:40:25.130Z,3.57
2019-05-19T20:42:56.705Z,4.07
2019-05-19T20:45:24.244Z,4.03
2019-05-19T20:47:52.899Z,3.83
2019-05-19T20:50:21.611Z,3.70
2019-05-19T20:52:50.435Z,4.23
2019-05-19T20:55:19.109Z,4.40
2019-05-19T20:57:48.012Z,5.10
2019-05-19T21:00:16.810Z,4.47
2019-05-19T21:02:45.478Z,4.43
2019-05-19T21:05:14.622Z,4.27
2019-05-19T21:07:43.350Z,4.57
2019-05-19T21:10:12.294Z,4.30
2019-05-19T21:12:41.023Z,5.30
2019-05-19T21:15:10.521Z,4.97
2019-05-19T21:17:39.207Z,5.00
2019-05-19T21:20:08.502Z,4.27
2019-05-19T21:22:37.320Z,4.93
2019-05-19T21:25:09.763Z,4.50
2019-05-19T21:27:38.448Z,5.40
2019-05-19T21:30:07.173Z,5.50
2019-05-19T21:32:36.055Z,5.30
2019-05-19T21:35:07.061Z,5.17
2019-05-19T21:37:36.459Z,5.13
2019-05-19T21:40:06.986Z,5.50
2019-05-19T21:42:35.683Z,5.40
2019-05-19T21:45:05.383Z,5.67
2019-05-19T21:47:34.404Z,4.67
2019-05-19T21:50:03.985Z,5.57
2019-05-19T21:52:33.412Z,5.47
2019-05-19T21:55:02.264Z,5.20
2019-05-19T21:57:31.000Z,6.23
2019-05-19T21:59:59.844Z,5.33
2019-05-19T22:02:28.560Z,4.97
2019-05-19T22:04:57.350Z,5.70
2019-05-19T22:07:39.397Z,5.30
2019-05-19T22:10:08.474Z,6.10
2019-05-19T22:12:37.275Z,5.30
2019-05-19T22:15:08.511Z,5.80
2019-05-19T22:17:37.208Z,5.20
2019-05-19T22:20:06.902Z,5.30
2019-05-19T22:22:35.575Z,6.10
2019-05-19T22:25:06.463Z,5.40
2019-05-19T22:27:35.261Z,5.40
2019-05-19T22:30:07.819Z,6.00
2019-05-19T22:32:36.498Z,5.43
2019-05-19T22:35:05.757Z,5.07
2019-05-19T22:37:34.464Z,4.70
2019-05-19T22:40:03.799Z,5.30
2019-05-19T22:42:32.544Z,5.50
2019-05-19T22:45:01.232Z,5.10
2019-05-19T22:47:29.924Z,5.53
2019-05-19T22:49:58.641Z,6.40
2019-05-19T22:52:27.365Z,5.70
2019-05-19T22:54:56.017Z,5.87
2019-05-19T22:57:24.736Z,6.60
2019-05-19T22:59:53.414Z,6.50
2019-05-19T23:02:23.190Z,5.87
2019-05-19T23:04:51.977Z,6.80
2019-05-19T23:07:20.670Z,5.57
2019-05-19T23:09:49.695Z,6.20
2019-05-19T23:12:18.377Z,6.13
2019-05-19T23:14:47.071Z,5.53
2019-05-19T23:17:16.047Z,6.53
2019-05-19T23:19:44.743Z,5.67
2019-05-19T23:22:13.413Z,6.63
2019-05-19T23:24:42.313Z,6.37
2019-05-19T23:27:11.009Z,5.57
2019-05-19T23:29:39.671Z,6.70
2019-05-19T23:32:08.376Z,7.40
2019-05-19T23:34:37.054Z,6.03
2019-05-19T23:37:05.762Z,6.50
2019-05-19T23:39:34.482Z,6.50
2019-05-19T23:42:03.192Z,6.90
2019-05-19T23:44:31.906Z,7.13
2019-05-19T23:47:00.559Z,6.80
2019-05-19T23:49:29.262Z,6.77
2019-05-19T23:51:57.935Z,6.73
2019-05-19T23:54:26.634Z,5.97
2019-05-19T23:56:55.300Z,6.70
2019-05-19T23:59:23.963Z,6.60
